S.paulus — CSIS — position and weather

sailwx.info

Track history (hours):
 
Tides and Currents Weather Stations Pressure Air Temp Water Temp Dewpoint Dewpoint Depression Visibility Wind Speed Wind Dir Waves Ship Positions

S.paulus

Last reported at 2017-Sep-20 15:38 UTC. Time now 2017-Sep-23 07:44 UTC.
Position N 38°42' W 009°08'.

Length 30 m; draft 3.2 m.

Type: Passenger vessel. MMSI: 263701860.

Date/timePositionNaut miles runAvg speedWind from/ knotsBaromVisibWave heightAir tempDewpointWater temp
2017-Sep-20 15:38N 38°42' W 009°08'0 1.0
2017-Sep-20 15:25N 38°42' W 009°08'0 0.1
2017-Sep-20 11:50N 38°42' W 009°08'0 0.0
2017-Sep-20 11:22N 38°42' W 009°08'0 0.0
2017-Sep-19 16:58N 38°42' W 009°08'0 0.0
2017-Sep-18 10:08N 38°42' W 009°08'0 0.0
2017-Sep-18 10:00N 38°42' W 009°08'0 0.0
2017-Sep-17 09:52N 38°42' W 009°08'0 0.0
2017-Sep-17 09:25N 38°42' W 009°08'0 0.1
2017-Sep-17 09:00N 38°42' W 009°08'0 0.0
2017-Sep-16 09:47N 38°42' W 009°08'0 0.0
2017-Sep-16 09:30N 38°42' W 009°08'1 0.0
2017-Sep-15 11:17N 38°42' W 009°09'2 5.9
2017-Sep-15 10:59N 38°41' W 009°11'0 0.6
2017-Sep-15 10:25N 38°41' W 009°11'0 0.0
2017-Sep-15 09:48N 38°41' W 009°11'3 2.2
2017-Sep-15 08:37N 38°42' W 009°08'0 0.0
2017-Sep-14 18:07N 38°42' W 009°08'1 7.1
2017-Sep-14 17:54N 38°42' W 009°10'3 4.5
2017-Sep-14 17:13N 38°41' W 009°14'0 1.1
2017-Sep-14 16:55N 38°41' W 009°14'2 4.4
2017-Sep-14 16:29N 38°41' W 009°11'2 1.2
2017-Sep-14 14:49N 38°41' W 009°14'2 5.0
2017-Sep-14 14:26N 38°41' W 009°11'1 0.6
2017-Sep-14 12:33N 38°41' W 009°13'1 8.5
2017-Sep-14 12:30N 38°41' W 009°12'4 2.8
2017-Sep-14 11:14N 38°42' W 009°08'2 5.1
2017-Sep-14 10:46N 38°42' W 009°11'1 3.2
2017-Sep-14 10:22N 38°42' W 009°13'1 3.7
2017-Sep-14 10:00N 38°41' W 009°14'3 5.0
2017-Sep-14 09:27N 38°41' W 009°11'1 0.1
2017-Sep-13 17:57N 38°42' W 009°09'2 3.9
2017-Sep-13 17:27N 38°41' W 009°12'2 3.6
2017-Sep-13 17:00N 38°41' W 009°14'2 4.0
2017-Sep-13 16:30N 38°41' W 009°11'3 3.8
2017-Sep-13 15:47N 38°42' W 009°08'4 6.1
2017-Sep-13 15:12N 38°41' W 009°12'1 6.6
2017-Sep-13 14:59N 38°41' W 009°14'3 2.2
2017-Sep-13 13:34N 38°42' W 009°10'1 6.0
2017-Sep-13 13:28N 38°42' W 009°11'2 4.4
2017-Sep-13 13:00N 38°41' W 009°13'2 3.6
2017-Sep-13 12:25N 38°41' W 009°11'1 0.5
2017-Sep-13 10:51N 38°42' W 009°11'1 3.2
2017-Sep-13 10:26N 38°42' W 009°13'1 2.8
2017-Sep-13 09:59N 38°41' W 009°14'5 4.0
2017-Sep-13 08:46N 38°42' W 009°08'2 0.2
2017-Sep-12 17:52N 38°42' W 009°11'2 4.0
2017-Sep-12 17:14N 38°41' W 009°14'1 2.2
2017-Sep-12 17:00N 38°41' W 009°13'2 4.5
2017-Sep-12 16:30N 38°41' W 009°10'2 1.2
2017-Sep-12 15:11N 38°41' W 009°12'1 6.9
2017-Sep-12 14:59N 38°41' W 009°14'2 4.2
2017-Sep-12 14:30N 38°41' W 009°11'2 1.2
2017-Sep-12 13:01N 38°41' W 009°13'1 3.9
2017-Sep-12 12:50N 38°41' W 009°14'1 0.6
2017-Sep-12 10:30N 38°41' W 009°13'1 3.0
2017-Sep-12 10:00N 38°41' W 009°14'5 0.3
2017-Sep-11 18:08N 38°42' W 009°08'2 6.7
2017-Sep-11 17:48N 38°42' W 009°11'2 3.6
2017-Sep-11 17:17N 38°41' W 009°13'1 1.2
2017-Sep-11 16:43N 38°41' W 009°12'3 2.4
2017-Sep-11 15:36N 38°42' W 009°09'1 8.1
2017-Sep-11 15:29N 38°42' W 009°11'3 5.4
2017-Sep-11 14:57N 38°40' W 009°14'3 5.3
2017-Sep-11 14:28N 38°41' W 009°11'2 4.2
2017-Sep-11 13:53N 38°42' W 009°08'3 5.5
2017-Sep-11 13:21N 38°42' W 009°12'2 4.8
2017-Sep-11 13:00N 38°41' W 009°14'3 1.7
2017-Sep-11 11:03N 38°42' W 009°10'1 5.0
2017-Sep-11 10:53N 38°42' W 009°11'1 0.6
2017-Sep-11 09:27N 38°41' W 009°11'1 0.1
2017-Sep-10 17:48N 38°42' W 009°11'2 3.8
2017-Sep-10 17:20N 38°41' W 009°13'1 1.5
2017-Sep-10 16:52N 38°41' W 009°13'  
Track history (hours):
 
Tides and Currents Weather Stations Pressure Air Temp Water Temp Dewpoint Dewpoint Depression Visibility Wind Speed Wind Dir Waves Ship Positions

S.paulus

Last reported at 2017-Sep-20 15:38 UTC. Time now 2017-Sep-23 07:44 UTC.
Position N 38°42' W 009°08'.

Length 30 m; draft 3.2 m.

Type: Passenger vessel. MMSI: 263701860.

Date/timePositionNaut miles runAvg speedWind from/ knotsBaromVisibWave heightAir tempDewpointWater temp
2017-Sep-20 15:38N 38°42' W 009°08'0 1.0
2017-Sep-20 15:25N 38°42' W 009°08'0 0.1
2017-Sep-20 11:50N 38°42' W 009°08'0 0.0
2017-Sep-20 11:22N 38°42' W 009°08'0 0.0
2017-Sep-19 16:58N 38°42' W 009°08'0 0.0
2017-Sep-18 10:08N 38°42' W 009°08'0 0.0
2017-Sep-18 10:00N 38°42' W 009°08'0 0.0
2017-Sep-17 09:52N 38°42' W 009°08'0 0.0
2017-Sep-17 09:25N 38°42' W 009°08'0 0.1
2017-Sep-17 09:00N 38°42' W 009°08'0 0.0
2017-Sep-16 09:47N 38°42' W 009°08'0 0.0
2017-Sep-16 09:30N 38°42' W 009°08'1 0.0
2017-Sep-15 11:17N 38°42' W 009°09'2 5.9
2017-Sep-15 10:59N 38°41' W 009°11'0 0.6
2017-Sep-15 10:25N 38°41' W 009°11'0 0.0
2017-Sep-15 09:48N 38°41' W 009°11'3 2.2
2017-Sep-15 08:37N 38°42' W 009°08'0 0.0
2017-Sep-14 18:07N 38°42' W 009°08'1 7.1
2017-Sep-14 17:54N 38°42' W 009°10'3 4.5
2017-Sep-14 17:13N 38°41' W 009°14'0 1.1
2017-Sep-14 16:55N 38°41' W 009°14'2 4.4
2017-Sep-14 16:29N 38°41' W 009°11'2 1.2
2017-Sep-14 14:49N 38°41' W 009°14'2 5.0
2017-Sep-14 14:26N 38°41' W 009°11'1 0.6
2017-Sep-14 12:33N 38°41' W 009°13'1 8.5
2017-Sep-14 12:30N 38°41' W 009°12'4 2.8
2017-Sep-14 11:14N 38°42' W 009°08'2 5.1
2017-Sep-14 10:46N 38°42' W 009°11'1 3.2
2017-Sep-14 10:22N 38°42' W 009°13'1 3.7
2017-Sep-14 10:00N 38°41' W 009°14'3 5.0
2017-Sep-14 09:27N 38°41' W 009°11'1 0.1
2017-Sep-13 17:57N 38°42' W 009°09'2 3.9
2017-Sep-13 17:27N 38°41' W 009°12'2 3.6
2017-Sep-13 17:00N 38°41' W 009°14'2 4.0
2017-Sep-13 16:30N 38°41' W 009°11'3 3.8
2017-Sep-13 15:47N 38°42' W 009°08'4 6.1
2017-Sep-13 15:12N 38°41' W 009°12'1 6.6
2017-Sep-13 14:59N 38°41' W 009°14'3 2.2
2017-Sep-13 13:34N 38°42' W 009°10'1 6.0
2017-Sep-13 13:28N 38°42' W 009°11'2 4.4
2017-Sep-13 13:00N 38°41' W 009°13'2 3.6
2017-Sep-13 12:25N 38°41' W 009°11'1 0.5
2017-Sep-13 10:51N 38°42' W 009°11'1 3.2
2017-Sep-13 10:26N 38°42' W 009°13'1 2.8
2017-Sep-13 09:59N 38°41' W 009°14'5 4.0
2017-Sep-13 08:46N 38°42' W 009°08'2 0.2
2017-Sep-12 17:52N 38°42' W 009°11'2 4.0
2017-Sep-12 17:14N 38°41' W 009°14'1 2.2
2017-Sep-12 17:00N 38°41' W 009°13'2 4.5
2017-Sep-12 16:30N 38°41' W 009°10'2 1.2
2017-Sep-12 15:11N 38°41' W 009°12'1 6.9
2017-Sep-12 14:59N 38°41' W 009°14'2 4.2
2017-Sep-12 14:30N 38°41' W 009°11'2 1.2
2017-Sep-12 13:01N 38°41' W 009°13'1 3.9
2017-Sep-12 12:50N 38°41' W 009°14'1 0.6
2017-Sep-12 10:30N 38°41' W 009°13'1 3.0
2017-Sep-12 10:00N 38°41' W 009°14'5 0.3
2017-Sep-11 18:08N 38°42' W 009°08'2 6.7
2017-Sep-11 17:48N 38°42' W 009°11'2 3.6
2017-Sep-11 17:17N 38°41' W 009°13'1 1.2
2017-Sep-11 16:43N 38°41' W 009°12'3 2.4
2017-Sep-11 15:36N 38°42' W 009°09'1 8.1
2017-Sep-11 15:29N 38°42' W 009°11'3 5.4
2017-Sep-11 14:57N 38°40' W 009°14'3 5.3
2017-Sep-11 14:28N 38°41' W 009°11'2 4.2
2017-Sep-11 13:53N 38°42' W 009°08'3 5.5
2017-Sep-11 13:21N 38°42' W 009°12'2 4.8
2017-Sep-11 13:00N 38°41' W 009°14'3 1.7
2017-Sep-11 11:03N 38°42' W 009°10'1 5.0
2017-Sep-11 10:53N 38°42' W 009°11'1 0.6
2017-Sep-11 09:27N 38°41' W 009°11'1 0.1
2017-Sep-10 17:48N 38°42' W 009°11'2 3.8
2017-Sep-10 17:20N 38°41' W 009°13'1 1.5
2017-Sep-10 16:52N 38°41' W 009°13'  

Dump ship's entire track history